Time;durP1;ratioP1;P1;durP2;ratioP2;P2;SDS_P1;SDS_P2;PMS_P1;PMS_P2;Temp;Humidity;BMP_temperature;BMP_pressure;BME280_temperature;BME280_humidity;BME280_pressure;Samples;Min_cycle;Max_cycle;Signal;HPM_P1;HPM_P2
2021/01/05 00:01:56;;;;;;;25.48;17.73;;;3.50;86.80;;;;;;5043289;28;20055;-59
2021/01/05 00:04:21;;;;;;;25.95;18.40;;;3.50;86.70;;;;;;5041794;28;20025;-59
2021/01/05 00:06:46;;;;;;;27.45;19.15;;;3.50;86.80;;;;;;5044772;28;20032;-57
2021/01/05 00:09:12;;;;;;;24.38;17.63;;;3.50;86.80;;;;;;5042697;28;20432;-59
2021/01/05 00:11:57;;;;;;;23.80;17.15;;;3.60;86.90;;;;;;5036581;28;20041;-59
2021/01/05 00:14:23;;;;;;;22.98;16.95;;;3.50;86.90;;;;;;5043707;28;20021;-60
2021/01/05 00:16:48;;;;;;;23.70;17.60;;;3.50;86.80;;;;;;5040939;28;20503;-56
2021/01/05 00:19:14;;;;;;;26.10;17.75;;;3.50;86.90;;;;;;5044471;28;20459;-59
2021/01/05 00:21:39;;;;;;;24.73;17.73;;;3.50;86.90;;;;;;5042593;28;20041;-56
2021/01/05 00:24:05;;;;;;;27.08;18.27;;;3.50;86.90;;;;;;5026497;28;20017;-58
2021/01/05 00:26:34;;;;;;;25.33;17.45;;;3.50;86.80;;;;;;5029844;28;20029;-60
2021/01/05 00:29:00;;;;;;;24.42;17.02;;;3.50;87.40;;;;;;5049739;28;20037;-57
2021/01/05 00:31:25;;;;;;;24.23;17.20;;;3.50;86.80;;;;;;5052704;28;20052;-58
2021/01/05 00:33:51;;;;;;;26.10;17.85;;;3.60;86.90;;;;;;5039109;28;20523;-58
2021/01/05 00:36:16;;;;;;;25.58;17.98;;;3.50;86.80;;;;;;5029659;28;20082;-57
2021/01/05 00:38:42;;;;;;;24.05;17.77;;;3.50;86.90;;;;;;5039410;28;20080;-59
2021/01/05 00:41:07;;;;;;;23.95;17.45;;;3.50;86.90;;;;;;5043218;28;20103;-59
2021/01/05 00:43:33;;;;;;;22.60;16.33;;;3.50;86.90;;;;;;5029149;28;20048;-59
2021/01/05 00:45:58;;;;;;;25.52;17.40;;;3.50;86.80;;;;;;5050187;28;20384;-57
2021/01/05 00:48:24;;;;;;;26.85;19.30;;;3.50;86.90;;;;;;5045454;28;20506;-59
2021/01/05 00:50:49;;;;;;;23.30;16.90;;;3.50;87.60;;;;;;5054180;28;20052;-59
2021/01/05 00:53:15;;;;;;;25.35;17.38;;;3.50;87.00;;;;;;5049690;28;20052;-58
2021/01/05 00:55:40;;;;;;;23.42;17.42;;;3.50;86.90;;;;;;5048737;28;20626;-57
2021/01/05 00:58:06;;;;;;;24.40;16.95;;;3.50;86.90;;;;;;5050011;28;20028;-57
2021/01/05 01:00:31;;;;;;;25.70;18.08;;;3.50;87.00;;;;;;5035688;28;20032;-58
2021/01/05 01:02:57;;;;;;;26.25;17.98;;;3.50;87.00;;;;;;5050043;28;20373;-58
2021/01/05 01:05:22;;;;;;;26.00;18.05;;;3.50;87.00;;;;;;5049603;28;20074;-59
2021/01/05 01:07:48;;;;;;;23.05;17.85;;;3.50;87.10;;;;;;5047724;28;20033;-57
2021/01/05 01:10:14;;;;;;;24.15;18.00;;;3.50;87.00;;;;;;5022001;28;20082;-57
2021/01/05 01:12:39;;;;;;;25.42;17.98;;;3.50;86.90;;;;;;5044800;28;20384;-58
2021/01/05 01:15:06;;;;;;;26.05;17.95;;;3.50;87.10;;;;;;5019057;28;20112;-58
2021/01/05 01:17:31;;;;;;;23.13;17.88;;;3.50;86.90;;;;;;5024349;28;20086;-59
2021/01/05 01:19:57;;;;;;;25.00;17.40;;;3.50;86.90;;;;;;5030408;28;20037;-58
2021/01/05 01:22:23;;;;;;;24.42;18.17;;;3.50;86.90;;;;;;5044670;28;20027;-56
2021/01/05 01:24:49;;;;;;;24.20;17.38;;;3.50;86.90;;;;;;5049613;28;20112;-59
2021/01/05 01:27:14;;;;;;;23.40;17.55;;;3.50;86.90;;;;;;5009629;28;20136;-57
2021/01/05 01:29:40;;;;;;;27.38;18.00;;;3.50;86.90;;;;;;5037594;28;20024;-57
2021/01/05 01:32:05;;;;;;;25.80;18.10;;;3.50;87.00;;;;;;5042405;28;20520;-57
2021/01/05 01:34:31;;;;;;;24.95;17.15;;;3.50;87.00;;;;;;5040862;28;20052;-57
2021/01/05 01:37:07;;;;;;;24.77;17.67;;;3.50;87.00;;;;;;5042149;28;20076;-58
2021/01/05 01:39:33;;;;;;;23.23;17.00;;;3.50;86.90;;;;;;5023132;28;20156;-59
2021/01/05 01:42:02;;;;;;;24.60;17.48;;;3.50;86.90;;;;;;5047726;28;20082;-57
2021/01/05 01:44:30;;;;;;;25.02;16.88;;;3.50;87.00;;;;;;5035606;28;20018;-59
2021/01/05 01:47:05;;;;;;;25.30;18.42;;;3.50;87.00;;;;;;5025383;28;20508;-59
2021/01/05 01:49:30;;;;;;;27.30;19.05;;;3.50;87.00;;;;;;5044631;28;20021;-58
2021/01/05 01:51:56;;;;;;;25.13;17.15;;;3.50;87.10;;;;;;5040728;28;20032;-57
2021/01/05 01:54:27;;;;;;;25.00;17.33;;;3.50;87.10;;;;;;5021358;28;20048;-59
2021/01/05 01:57:31;;;;;;;27.30;18.58;;;3.50;87.00;;;;;;5026739;28;20539;-59
2021/01/05 02:00:12;;;;;;;25.35;17.23;;;3.50;87.00;;;;;;5021809;28;20109;-58
2021/01/05 02:03:06;;;;;;;25.83;18.33;;;3.50;87.00;;;;;;5025904;28;20052;-58
2021/01/05 02:05:50;;;;;;;26.25;17.90;;;3.50;87.10;;;;;;5023660;28;20116;-58
2021/01/05 02:08:41;;;;;;;24.35;17.27;;;3.50;87.10;;;;;;5044542;28;20021;-56
2021/01/05 02:11:18;;;;;;;26.77;18.95;;;3.50;87.10;;;;;;5025163;28;20036;-57
2021/01/05 02:14:28;;;;;;;26.45;17.95;;;3.50;87.10;;;;;;5027497;28;20049;-59
2021/01/05 02:16:56;;;;;;;25.13;17.77;;;3.50;87.10;;;;;;5035798;28;20045;-57
2021/01/05 02:19:40;;;;;;;25.20;17.55;;;3.50;87.00;;;;;;5044817;28;20033;-58
2021/01/05 02:22:37;;;;;;;25.27;17.65;;;3.50;87.10;;;;;;5034019;28;20037;-58
2021/01/05 02:25:17;;;;;;;27.15;18.50;;;3.40;87.00;;;;;;5022855;28;20022;-57
2021/01/05 02:27:45;;;;;;;26.25;18.73;;;3.50;87.10;;;;;;5026197;28;20493;-58
2021/01/05 02:30:11;;;;;;;25.73;18.00;;;3.50;87.20;;;;;;5027000;28;20032;-59
2021/01/05 02:32:50;;;;;;;25.45;18.05;;;3.50;87.20;;;;;;5032884;28;20459;-60
2021/01/05 02:35:21;;;;;;;25.48;17.83;;;3.40;87.00;;;;;;5027053;28;20392;-57
2021/01/05 02:38:04;;;;;;;26.25;19.00;;;3.50;87.10;;;;;;5044705;28;20029;-59
2021/01/05 02:41:07;;;;;;;25.33;18.10;;;3.50;87.10;;;;;;5013901;28;20033;-57
2021/01/05 02:43:55;;;;;;;24.55;17.35;;;3.50;87.10;;;;;;5045597;28;20028;-59
2021/01/05 02:46:25;;;;;;;26.02;18.38;;;3.40;87.10;;;;;;5038231;28;20095;-58
2021/01/05 02:49:03;;;;;;;27.90;19.13;;;3.50;87.10;;;;;;5043141;28;20005;-57
2021/01/05 02:52:09;;;;;;;26.65;18.75;;;3.40;87.10;;;;;;5025275;28;20040;-57
2021/01/05 02:55:16;;;;;;;30.13;19.30;;;3.50;87.30;;;;;;5032437;28;20458;-56
2021/01/05 02:57:46;;;;;;;26.58;19.00;;;3.50;87.20;;;;;;4994304;28;20121;-58
2021/01/05 03:01:03;;;;;;;25.00;17.20;;;3.40;87.10;;;;;;5042775;28;20029;-56
2021/01/05 03:03:42;;;;;;;26.50;19.05;;;3.50;87.20;;;;;;5010813;28;20407;-59
2021/01/05 03:06:21;;;;;;;28.00;18.45;;;3.50;87.20;;;;;;5050964;28;20025;-59
2021/01/05 03:09:10;;;;;;;24.17;17.70;;;3.50;87.20;;;;;;5038916;28;20022;-58
2021/01/05 03:12:03;;;;;;;26.65;19.02;;;3.50;87.20;;;;;;5026765;28;20021;-56
2021/01/05 03:15:14;;;;;;;26.75;17.70;;;3.50;87.30;;;;;;5016063;28;20053;-57
2021/01/05 03:17:44;;;;;;;25.42;17.73;;;3.40;87.20;;;;;;5040084;28;20447;-59
2021/01/05 03:20:13;;;;;;;25.08;18.00;;;3.50;87.30;;;;;;5016780;28;20022;-57
2021/01/05 03:22:57;;;;;;;25.52;18.08;;;3.40;87.20;;;;;;5027818;28;20049;-57
2021/01/05 03:25:24;;;;;;;29.17;18.77;;;3.50;87.20;;;;;;5018530;28;20103;-57
2021/01/05 03:27:51;;;;;;;28.10;19.67;;;3.50;87.20;;;;;;5042530;28;20031;-57
2021/01/05 03:30:28;;;;;;;25.90;17.65;;;3.50;87.20;;;;;;5016092;28;20496;-57
2021/01/05 03:32:53;;;;;;;28.23;19.80;;;3.40;87.20;;;;;;5022504;28;20440;-58
2021/01/05 03:35:19;;;;;;;27.83;18.85;;;3.50;87.30;;;;;;5024458;28;20036;-59
2021/01/05 03:37:44;;;;;;;27.05;18.27;;;3.50;87.30;;;;;;5024471;28;20026;-59
2021/01/05 03:40:11;;;;;;;27.25;18.80;;;3.50;87.30;;;;;;5041503;28;20527;-58
2021/01/05 03:42:37;;;;;;;26.40;19.13;;;3.50;87.30;;;;;;5041691;28;20029;-59
2021/01/05 03:45:04;;;;;;;26.90;19.45;;;3.50;87.30;;;;;;5040132;28;20115;-59
2021/01/05 03:47:29;;;;;;;24.50;18.58;;;3.40;87.30;;;;;;5023485;28;20041;-57
2021/01/05 03:49:55;;;;;;;24.92;18.23;;;3.50;87.30;;;;;;5024372;28;20033;-58
2021/01/05 03:52:23;;;;;;;27.73;18.85;;;3.50;87.30;;;;;;5042447;28;20022;-57
2021/01/05 03:54:52;;;;;;;28.75;19.20;;;3.40;87.20;;;;;;5042138;28;20372;-58
2021/01/05 03:57:18;;;;;;;27.45;18.55;;;3.40;87.20;;;;;;5040396;28;20366;-62
2021/01/05 03:59:43;;;;;;;25.52;19.13;;;3.40;87.20;;;;;;5042122;28;20040;-56
2021/01/05 04:02:09;;;;;;;27.45;19.08;;;3.50;87.40;;;;;;5039640;28;20026;-57
2021/01/05 04:04:34;;;;;;;28.00;18.60;;;3.40;87.30;;;;;;5025321;28;20029;-58
2021/01/05 04:07:00;;;;;;;25.33;18.08;;;3.40;87.30;;;;;;5054915;28;20025;-57
2021/01/05 04:09:25;;;;;;;25.40;18.33;;;3.40;87.40;;;;;;5044728;28;20048;-60
2021/01/05 04:11:51;;;;;;;26.25;18.13;;;3.50;87.40;;;;;;5040419;28;20571;-57
2021/01/05 04:14:17;;;;;;;27.13;18.02;;;3.40;87.40;;;;;;5042142;28;20082;-57
2021/01/05 04:16:45;;;;;;;29.60;18.70;;;3.40;87.30;;;;;;5047430;28;20033;-57
2021/01/05 04:19:11;;;;;;;27.52;19.30;;;3.50;87.40;;;;;;5031739;28;20027;-59
2021/01/05 04:21:36;;;;;;;27.55;18.83;;;3.40;87.40;;;;;;5051901;28;20407;-57
2021/01/05 04:24:02;;;;;;;27.02;19.33;;;3.40;87.30;;;;;;5044907;28;20107;-59
2021/01/05 04:26:27;;;;;;;28.40;19.95;;;3.40;87.40;;;;;;5046988;28;20114;-58
2021/01/05 04:28:53;;;;;;;26.02;18.88;;;3.50;87.50;;;;;;5031382;28;20387;-58
2021/01/05 04:31:18;;;;;;;26.33;18.63;;;3.40;87.40;;;;;;5048087;28;20047;-59
2021/01/05 04:33:44;;;;;;;27.08;19.75;;;3.40;87.50;;;;;;5048600;28;20049;-57
2021/01/05 04:36:09;;;;;;;27.15;18.63;;;3.40;87.50;;;;;;5048522;28;20044;-59
2021/01/05 04:38:35;;;;;;;26.45;19.10;;;3.40;87.50;;;;;;5047902;28;20027;-58
2021/01/05 04:41:00;;;;;;;25.13;17.63;;;3.50;87.50;;;;;;5050258;28;20040;-57
2021/01/05 04:43:39;;;;;;;28.38;18.92;;;3.40;87.50;;;;;;5047979;28;20044;-58
2021/01/05 04:46:17;;;;;;;27.08;19.05;;;3.50;87.60;;;;;;5037441;28;20032;-57
2021/01/05 04:49:21;;;;;;;27.08;18.85;;;3.40;87.60;;;;;;5046416;28;20499;-58
2021/01/05 04:51:52;;;;;;;29.05;19.92;;;3.40;87.60;;;;;;5030616;28;20032;-60
2021/01/05 04:54:50;;;;;;;27.92;18.77;;;3.40;87.50;;;;;;5022919;28;20024;-59
2021/01/05 04:57:19;;;;;;;27.05;18.20;;;3.40;87.50;;;;;;4986463;28;20037;-59
2021/01/05 05:00:02;;;;;;;27.33;19.05;;;3.40;87.50;;;;;;5029896;28;20380;-59
2021/01/05 05:02:27;;;;;;;26.90;18.10;;;3.40;87.60;;;;;;5048267;28;20040;-57
2021/01/05 05:04:59;;;;;;;26.45;18.70;;;3.40;87.40;;;;;;5045339;28;20017;-59
2021/01/05 05:07:30;;;;;;;28.75;18.80;;;3.40;87.60;;;;;;5016404;28;20025;-58
2021/01/05 05:10:01;;;;;;;28.58;19.13;;;3.40;87.60;;;;;;5043597;28;20079;-57
2021/01/05 05:12:39;;;;;;;29.92;19.77;;;3.40;87.60;;;;;;5012623;28;20020;-57
2021/01/05 05:15:04;;;;;;;28.45;19.02;;;3.40;87.60;;;;;;5052177;28;20036;-59
2021/01/05 05:17:46;;;;;;;29.20;19.00;;;3.40;87.60;;;;;;5044673;28;20499;-58
2021/01/05 05:20:18;;;;;;;27.40;18.45;;;3.40;87.60;;;;;;5015785;28;20063;-57
2021/01/05 05:22:49;;;;;;;27.30;18.95;;;3.40;87.60;;;;;;5023966;28;20018;-57
2021/01/05 05:25:22;;;;;;;26.63;18.00;;;3.40;87.60;;;;;;5024495;28;20049;-60
2021/01/05 05:27:55;;;;;;;27.40;18.42;;;3.40;87.60;;;;;;5012555;28;20020;-58
2021/01/05 05:30:40;;;;;;;28.38;20.10;;;3.40;87.60;;;;;;5028838;28;20448;-59
2021/01/05 05:33:32;;;;;;;28.35;19.45;;;3.40;87.70;;;;;;5028783;28;20053;-58
2021/01/05 05:36:20;;;;;;;26.35;18.00;;;3.40;87.60;;;;;;5049963;28;20044;-57
2021/01/05 05:39:01;;;;;;;29.55;19.05;;;3.40;87.60;;;;;;5035444;28;20666;-58
2021/01/05 05:41:47;;;;;;;25.33;18.75;;;3.40;87.60;;;;;;5033353;28;20073;-56
2021/01/05 05:44:23;;;;;;;28.00;18.70;;;3.40;87.70;;;;;;5034187;28;20041;-58
2021/01/05 05:47:20;;;;;;;27.17;17.77;;;3.40;87.70;;;;;;5034823;28;20029;-59
2021/01/05 05:49:57;;;;;;;27.70;18.67;;;3.40;87.70;;;;;;5017617;28;20017;-59
2021/01/05 05:52:33;;;;;;;27.10;18.35;;;3.40;87.70;;;;;;5036250;28;20104;-59
2021/01/05 05:54:58;;;;;;;;;;;3.40;87.70;;;;;;5014007;28;20389;-58
2021/01/05 05:57:34;;;;;;;28.08;18.95;;;3.40;87.70;;;;;;5048519;28;19912;-59
2021/01/05 06:00:13;;;;;;;29.05;19.40;;;3.40;87.70;;;;;;5019675;28;20029;-60
2021/01/05 06:02:38;;;;;;;25.65;17.75;;;3.40;87.70;;;;;;5034570;28;20104;-57
2021/01/05 06:05:34;;;;;;;26.58;18.67;;;3.40;87.70;;;;;;5053609;28;20107;-58
2021/01/05 06:08:00;;;;;;;26.27;17.87;;;3.40;87.80;;;;;;5043114;28;20388;-59
2021/01/05 06:10:25;;;;;;;25.73;17.42;;;3.40;87.80;;;;;;5040237;28;20025;-59
2021/01/05 06:12:51;;;;;;;26.08;17.73;;;3.40;87.90;;;;;;5041247;28;20025;-57
2021/01/05 06:15:16;;;;;;;25.90;17.75;;;3.40;87.90;;;;;;5031642;28;20032;-58
2021/01/05 06:17:42;;;;;;;27.45;19.05;;;3.40;87.80;;;;;;5049749;28;20116;-57
2021/01/05 06:20:08;;;;;;;24.77;17.65;;;3.30;87.70;;;;;;5047093;28;20065;-58
2021/01/05 06:22:33;;;;;;;26.00;18.10;;;3.20;87.70;;;;;;5044981;28;20031;-58
2021/01/05 06:24:59;;;;;;;26.20;18.50;;;3.40;87.90;;;;;;5034833;28;20079;-57
2021/01/05 06:27:24;;;;;;;26.38;18.10;;;3.40;87.90;;;;;;5046451;28;20071;-58
2021/01/05 06:29:50;;;;;;;28.13;18.88;;;3.40;87.80;;;;;;5048804;28;20025;-57
2021/01/05 06:32:15;;;;;;;26.80;17.90;;;3.40;87.90;;;;;;5029570;28;20520;-56
2021/01/05 06:34:41;;;;;;;25.48;18.13;;;3.40;87.90;;;;;;5022915;28;20059;-59
2021/01/05 06:37:06;;;;;;;27.30;17.95;;;3.30;87.80;;;;;;5012477;28;20024;-58
2021/01/05 06:39:32;;;;;;;29.38;18.33;;;3.30;87.80;;;;;;5042537;28;20473;-59
2021/01/05 06:41:57;;;;;;;25.77;17.98;;;3.40;88.00;;;;;;5041190;28;20036;-60
2021/01/05 06:44:23;;;;;;;26.27;17.25;;;3.40;88.00;;;;;;5045101;28;20025;-57
2021/01/05 06:46:52;;;;;;;26.65;17.45;;;3.30;87.90;;;;;;5040739;28;20033;-59
2021/01/05 06:49:18;;;;;;;25.58;17.60;;;3.30;87.90;;;;;;5037791;28;20032;-59
2021/01/05 06:51:43;;;;;;;26.10;18.27;;;3.40;88.00;;;;;;5024587;28;20100;-59
2021/01/05 06:54:09;;;;;;;27.45;18.35;;;3.40;88.00;;;;;;5039597;28;20045;-58
2021/01/05 06:56:49;;;;;;;26.42;17.58;;;3.30;87.90;;;;;;5041523;28;20086;-57
2021/01/05 06:59:15;;;;;;;26.60;17.95;;;3.30;87.90;;;;;;5029943;28;20213;-59
2021/01/05 07:01:40;;;;;;;26.33;16.88;;;3.40;88.00;;;;;;5041675;28;20140;-58
2021/01/05 07:04:06;;;;;;;27.70;18.35;;;3.30;87.90;;;;;;5041225;28;20031;-60
2021/01/05 07:06:31;;;;;;;24.25;17.00;;;3.30;87.90;;;;;;5027494;28;20130;-56
2021/01/05 07:08:57;;;;;;;23.52;16.63;;;3.30;87.90;;;;;;5045890;28;20059;-59
2021/01/05 07:11:22;;;;;;;26.48;17.27;;;3.30;87.90;;;;;;5028174;28;20180;-57
2021/01/05 07:13:48;;;;;;;28.27;17.52;;;3.30;88.00;;;;;;5044760;28;20158;-59
2021/01/05 07:16:13;;;;;;;25.15;17.50;;;3.30;88.10;;;;;;5051237;28;20604;-58
2021/01/05 07:18:39;;;;;;;30.85;17.20;;;3.30;88.00;;;;;;5044500;28;20037;-56
2021/01/05 07:21:04;;;;;;;27.05;17.90;;;3.30;88.00;;;;;;5046595;28;20029;-59
2021/01/05 07:23:30;;;;;;;27.13;17.23;;;3.30;88.00;;;;;;5019086;28;20028;-58
2021/01/05 07:25:55;;;;;;;23.67;16.80;;;3.30;88.10;;;;;;5052766;28;20166;-59
2021/01/05 07:28:21;;;;;;;24.35;16.70;;;3.30;88.00;;;;;;5045663;28;20116;-58
2021/01/05 07:30:46;;;;;;;27.90;17.08;;;3.30;88.00;;;;;;5028334;28;20028;-59
2021/01/05 07:33:12;;;;;;;27.42;17.17;;;3.30;88.00;;;;;;5041859;28;20488;-59
2021/01/05 07:35:38;;;;;;;28.60;18.17;;;3.30;88.00;;;;;;5042588;28;20045;-59
2021/01/05 07:38:03;;;;;;;26.63;17.10;;;3.30;88.00;;;;;;5029403;28;20048;-59
2021/01/05 07:40:29;;;;;;;25.65;17.77;;;3.40;88.00;;;;;;5045919;28;20064;-59
2021/01/05 07:42:54;;;;;;;26.25;16.60;;;3.30;88.00;;;;;;5051538;28;20036;-57
2021/01/05 07:45:20;;;;;;;33.42;17.60;;;3.30;88.00;;;;;;5047801;28;20037;-57
2021/01/05 07:47:46;;;;;;;30.23;18.02;;;3.30;87.90;;;;;;5012775;28;20151;-59
2021/01/05 07:50:17;;;;;;;26.25;17.10;;;3.30;87.90;;;;;;5023207;28;20128;-57
2021/01/05 07:52:43;;;;;;;29.77;16.75;;;3.40;87.90;;;;;;5047197;28;20032;-58
2021/01/05 07:55:29;;;;;;;32.78;17.58;;;3.40;87.90;;;;;;5041848;28;20432;-58
2021/01/05 07:57:55;;;;;;;32.33;17.30;;;3.40;87.80;;;;;;5027553;28;20155;-57
2021/01/05 08:00:25;;;;;;;24.63;16.73;;;3.40;87.90;;;;;;5018695;28;20034;-57
2021/01/05 08:02:53;;;;;;;30.10;16.65;;;3.40;87.90;;;;;;5042349;28;20022;-58
2021/01/05 08:05:20;;;;;;;28.98;16.30;;;3.40;87.90;;;;;;5040507;28;20038;-59
2021/01/05 08:07:45;;;;;;;36.67;17.15;;;3.40;87.90;;;;;;5038921;28;20040;-57
2021/01/05 08:10:37;;;;;;;28.92;17.20;;;3.40;87.90;;;;;;5038448;28;20061;-57
2021/01/05 08:13:05;;;;;;;36.85;17.08;;;3.40;87.90;;;;;;5018022;28;20052;-56
2021/01/05 08:15:30;;;;;;;28.38;16.67;;;3.40;87.80;;;;;;5036811;28;20033;-57
2021/01/05 08:17:56;;;;;;;37.08;18.45;;;3.50;87.90;;;;;;5042033;28;20041;-58
2021/01/05 08:20:23;;;;;;;36.15;17.35;;;3.40;87.80;;;;;;5035460;28;20485;-58
2021/01/05 08:22:49;;;;;;;35.60;17.88;;;3.40;87.90;;;;;;5026821;28;20513;-59
2021/01/05 08:25:15;;;;;;;30.33;17.13;;;3.40;87.90;;;;;;5040398;28;20046;-59
2021/01/05 08:27:42;;;;;;;32.33;17.17;;;3.40;87.80;;;;;;5006230;28;20442;-58
2021/01/05 08:30:08;;;;;;;32.00;17.95;;;3.40;87.90;;;;;;5042360;28;20044;-58
2021/01/05 08:32:33;;;;;;;36.50;18.58;;;3.40;87.90;;;;;;5044907;28;20017;-56
2021/01/05 08:34:59;;;;;;;34.72;17.90;;;3.40;87.90;;;;;;5030689;28;20496;-57
2021/01/05 08:37:24;;;;;;;35.33;18.60;;;3.40;88.00;;;;;;5028264;28;20064;-56
2021/01/05 08:39:50;;;;;;;37.92;17.88;;;3.30;88.00;;;;;;5046455;28;20043;-57
2021/01/05 08:42:15;;;;;;;34.92;19.10;;;3.30;88.00;;;;;;5026931;28;20029;-58
2021/01/05 08:44:43;;;;;;;32.22;18.73;;;3.30;87.90;;;;;;5043614;28;20089;-57
2021/01/05 08:47:08;;;;;;;31.77;17.67;;;3.30;88.00;;;;;;5028147;28;20079;-58
2021/01/05 08:49:34;;;;;;;32.55;18.73;;;3.40;88.00;;;;;;5042786;28;20071;-59
2021/01/05 08:51:59;;;;;;;31.20;17.42;;;3.30;87.90;;;;;;5045913;28;20108;-56
2021/01/05 08:54:25;;;;;;;33.47;19.55;;;3.30;88.00;;;;;;5037099;28;20487;-57
2021/01/05 08:56:59;;;;;;;46.03;19.08;;;3.30;87.90;;;;;;5047703;28;20025;-58
2021/01/05 08:59:24;;;;;;;35.40;18.20;;;3.30;87.90;;;;;;5030097;28;20353;-57
2021/01/05 09:01:50;;;;;;;30.65;17.58;;;3.30;88.10;;;;;;5046733;28;20021;-57
2021/01/05 09:04:15;;;;;;;36.72;19.02;;;3.30;88.10;;;;;;5028857;28;20025;-56
2021/01/05 09:06:45;;;;;;;45.00;18.33;;;3.30;88.00;;;;;;5051067;28;20035;-58
2021/01/05 09:09:10;;;;;;;34.83;18.92;;;3.30;87.90;;;;;;5012877;28;20108;-57
2021/01/05 09:11:36;;;;;;;36.63;18.85;;;3.30;87.90;;;;;;5039022;28;20150;-57
2021/01/05 09:14:01;;;;;;;35.53;17.90;;;3.30;88.00;;;;;;5046216;28;20068;-59
2021/01/05 09:16:30;;;;;;;31.65;18.15;;;3.30;88.10;;;;;;5048246;28;20432;-59
2021/01/05 09:18:56;;;;;;;34.85;18.90;;;3.30;88.10;;;;;;5046511;28;20032;-56
2021/01/05 09:21:23;;;;;;;36.53;18.65;;;3.30;87.90;;;;;;5032614;28;20032;-58
2021/01/05 09:23:52;;;;;;;33.38;17.92;;;3.30;87.90;;;;;;5048699;28;20374;-59
2021/01/05 09:26:22;;;;;;;48.28;18.05;;;3.30;88.00;;;;;;5036281;28;20037;-57
2021/01/05 09:28:48;;;;;;;31.80;18.60;;;3.30;87.90;;;;;;5044352;28;20033;-57
2021/01/05 09:31:13;;;;;;;36.17;19.17;;;3.30;87.90;;;;;;5046131;28;20044;-56
2021/01/05 09:33:39;;;;;;;35.25;18.50;;;3.30;88.00;;;;;;5028161;28;20053;-58
2021/01/05 09:36:05;;;;;;;39.70;19.20;;;3.30;87.90;;;;;;5045413;28;20104;-58
2021/01/05 09:38:30;;;;;;;35.75;18.35;;;3.30;87.90;;;;;;5043657;28;20085;-57
2021/01/05 09:40:56;;;;;;;31.92;18.73;;;3.30;87.90;;;;;;5042423;28;20544;-58
2021/01/05 09:43:21;;;;;;;27.73;17.42;;;3.30;87.90;;;;;;5041359;28;20029;-57
2021/01/05 09:45:47;;;;;;;35.25;18.50;;;3.30;87.80;;;;;;5048132;28;20379;-59
2021/01/05 09:48:14;;;;;;;33.53;18.00;;;3.40;87.80;;;;;;5023148;28;20022;-58
2021/01/05 09:50:40;;;;;;;35.53;18.75;;;3.30;87.80;;;;;;5047106;28;20495;-59
2021/01/05 09:53:06;;;;;;;35.17;18.13;;;3.40;87.90;;;;;;5026234;28;20050;-58
2021/01/05 09:55:32;;;;;;;31.60;18.92;;;3.40;87.70;;;;;;5046034;28;20176;-59
2021/01/05 09:57:58;;;;;;;31.38;17.40;;;3.40;87.70;;;;;;5042575;28;20484;-57
2021/01/05 10:00:23;;;;;;;52.40;19.15;;;3.40;87.60;;;;;;5047408;28;20028;-57
2021/01/05 10:02:49;;;;;;;39.83;18.25;;;3.40;87.60;;;;;;5046612;28;20025;-59
2021/01/05 10:05:15;;;;;;;32.65;17.77;;;3.40;87.60;;;;;;5027654;28;20122;-57
2021/01/05 10:07:40;;;;;;;31.23;18.85;;;3.40;87.60;;;;;;5029366;28;20167;-57
2021/01/05 10:10:07;;;;;;;40.42;18.83;;;3.40;87.60;;;;;;5046859;28;20029;-58
2021/01/05 10:12:32;;;;;;;39.38;18.60;;;3.40;87.70;;;;;;5048183;28;20051;-59
2021/01/05 10:14:58;;;;;;;37.15;18.83;;;3.40;87.60;;;;;;5048412;28;20053;-59
2021/01/05 10:17:24;;;;;;;39.28;18.48;;;3.40;87.60;;;;;;5038083;28;20105;-59
2021/01/05 10:19:49;;;;;;;43.63;18.50;;;3.40;87.50;;;;;;5044714;28;20080;-58
2021/01/05 10:22:15;;;;;;;37.20;17.48;;;3.50;87.60;;;;;;5045466;28;20488;-56
2021/01/05 10:24:40;;;;;;;37.08;18.83;;;3.40;87.50;;;;;;5016004;28;20504;-58
2021/01/05 10:27:06;;;;;;;33.15;17.80;;;3.40;87.40;;;;;;5043651;28;20021;-57
2021/01/05 10:29:31;;;;;;;43.30;18.85;;;3.40;87.40;;;;;;5038476;28;20503;-57
2021/01/05 10:31:57;;;;;;;35.05;16.65;;;3.50;87.40;;;;;;5042378;28;20037;-59
2021/01/05 10:34:23;;;;;;;37.58;17.98;;;3.40;87.30;;;;;;5037624;28;20038;-59
2021/01/05 10:36:56;;;;;;;32.88;17.70;;;3.50;87.30;;;;;;5019987;28;20110;-57
2021/01/05 10:39:22;;;;;;;38.65;16.80;;;3.50;87.20;;;;;;5034297;28;20025;-57
2021/01/05 10:41:47;;;;;;;34.67;17.25;;;3.50;87.20;;;;;;5018884;28;20040;-59
2021/01/05 10:44:14;;;;;;;34.08;17.13;;;3.50;87.20;;;;;;5050639;28;20064;-59
2021/01/05 10:46:39;;;;;;;35.75;17.25;;;3.50;87.20;;;;;;5025706;28;20020;-59
2021/01/05 10:49:05;;;;;;;32.53;17.50;;;3.50;87.20;;;;;;5050510;28;20081;-56
2021/01/05 10:51:31;;;;;;;37.03;16.02;;;3.50;87.10;;;;;;5028503;28;20025;-59
2021/01/05 10:53:57;;;;;;;33.72;16.85;;;3.50;87.10;;;;;;5042661;28;20044;-59
2021/01/05 10:56:23;;;;;;;31.00;16.52;;;3.50;87.00;;;;;;5052547;28;20029;-59
2021/01/05 10:58:49;;;;;;;38.03;17.70;;;3.50;87.00;;;;;;5050329;28;20040;-57
2021/01/05 11:01:14;;;;;;;43.75;17.60;;;3.50;87.10;;;;;;5045447;28;20483;-58
2021/01/05 11:03:40;;;;;;;45.15;18.20;;;3.50;87.10;;;;;;5046899;28;20307;-58
2021/01/05 11:06:06;;;;;;;40.70;17.02;;;3.50;86.90;;;;;;5042864;28;20029;-57
2021/01/05 11:08:31;;;;;;;41.35;17.77;;;3.50;87.00;;;;;;5016948;28;20635;-60
2021/01/05 11:11:00;;;;;;;33.78;16.75;;;3.50;86.90;;;;;;5038973;28;20091;-58
2021/01/05 11:13:25;;;;;;;40.17;16.95;;;3.50;86.90;;;;;;5008883;28;20028;-58
2021/01/05 11:15:51;;;;;;;32.67;16.58;;;3.50;86.90;;;;;;5054360;28;20032;-57
2021/01/05 11:18:16;;;;;;;35.08;17.63;;;3.50;86.80;;;;;;5052052;28;20044;-59
2021/01/05 11:20:42;;;;;;;44.00;17.98;;;3.50;86.90;;;;;;5049745;28;20044;-57
2021/01/05 11:23:08;;;;;;;37.72;17.27;;;3.50;86.80;;;;;;5051946;28;20377;-56
2021/01/05 11:25:35;;;;;;;34.97;16.75;;;3.60;86.90;;;;;;5031802;28;20024;-57
2021/01/05 11:28:01;;;;;;;29.30;16.55;;;3.60;86.80;;;;;;5035512;28;20471;-59
2021/01/05 11:30:26;;;;;;;28.45;16.55;;;3.60;86.70;;;;;;5059957;28;20020;-58
2021/01/05 11:32:52;;;;;;;29.75;17.27;;;3.60;86.80;;;;;;5035762;28;20476;-59
2021/01/05 11:35:17;;;;;;;29.80;16.17;;;3.60;86.80;;;;;;5050361;28;20029;-58
2021/01/05 11:37:43;;;;;;;31.23;15.65;;;3.60;86.50;;;;;;5041313;28;20052;-58
2021/01/05 11:40:09;;;;;;;29.58;16.83;;;3.60;86.50;;;;;;5036348;28;20043;-57
2021/01/05 11:42:34;;;;;;;29.60;17.42;;;3.60;86.40;;;;;;5027522;28;20679;-56
2021/01/05 11:45:01;;;;;;;26.58;16.40;;;3.60;86.40;;;;;;5033773;28;20032;-58
2021/01/05 11:47:28;;;;;;;29.63;16.40;;;3.60;86.50;;;;;;5060517;28;20017;-59
2021/01/05 11:49:53;;;;;;;31.88;16.77;;;3.60;86.50;;;;;;5042789;28;20044;-57
2021/01/05 11:52:19;;;;;;;30.05;17.10;;;3.60;86.30;;;;;;5039061;28;20029;-56
2021/01/05 11:54:45;;;;;;;27.85;17.08;;;3.60;86.60;;;;;;5050710;28;20033;-58
2021/01/05 11:57:10;;;;;;;22.95;15.32;;;3.60;86.50;;;;;;5052525;28;20400;-59
2021/01/05 11:59:36;;;;;;;26.50;16.20;;;3.60;86.50;;;;;;5036113;28;20028;-59
2021/01/05 12:02:02;;;;;;;24.92;16.55;;;3.70;86.60;;;;;;5022800;28;20060;-58
2021/01/05 12:04:27;;;;;;;27.55;17.05;;;3.70;86.60;;;;;;5052699;28;20057;-57
2021/01/05 12:06:53;;;;;;;31.35;15.77;;;3.70;86.60;;;;;;5033962;28;20472;-59
2021/01/05 12:09:20;;;;;;;24.45;15.23;;;3.70;86.60;;;;;;4999765;28;20025;-57
2021/01/05 12:11:45;;;;;;;29.88;17.10;;;3.70;86.50;;;;;;5029749;28;20480;-58
2021/01/05 12:14:12;;;;;;;25.13;16.80;;;3.70;86.40;;;;;;5045536;28;20033;-57
2021/01/05 12:16:42;;;;;;;26.88;15.43;;;3.70;86.40;;;;;;4996465;28;20070;-57
2021/01/05 12:19:11;;;;;;;25.70;15.90;;;3.70;86.40;;;;;;5049099;28;20110;-57
2021/01/05 12:21:38;;;;;;;25.25;16.58;;;3.70;86.30;;;;;;5028836;28;20021;-58
2021/01/05 12:24:04;;;;;;;25.85;16.45;;;3.70;86.30;;;;;;5041481;28;20029;-59
2021/01/05 12:26:35;;;;;;;30.45;16.65;;;3.70;86.10;;;;;;5033976;28;20033;-59
2021/01/05 12:29:02;;;;;;;33.25;17.08;;;3.70;86.10;;;;;;5035150;28;20476;-60
2021/01/05 12:31:28;;;;;;;25.65;16.58;;;3.70;86.20;;;;;;5046617;28;20041;-57
2021/01/05 12:33:54;;;;;;;28.08;16.13;;;3.70;86.20;;;;;;5048522;28;20067;-59
2021/01/05 12:36:30;;;;;;;23.50;16.20;;;3.70;86.10;;;;;;5036936;28;20193;-59
2021/01/05 12:38:56;;;;;;;24.52;14.70;;;3.70;86.00;;;;;;5010417;28;20075;-57
2021/01/05 12:41:21;;;;;;;29.05;15.40;;;3.80;86.10;;;;;;4998396;28;20029;-57
2021/01/05 12:43:47;;;;;;;26.10;16.05;;;3.80;86.20;;;;;;5038748;28;20048;-56
2021/01/05 12:46:24;;;;;;;23.38;15.50;;;3.80;86.30;;;;;;5031627;28;20025;-58
2021/01/05 12:48:49;;;;;;;32.42;16.20;;;3.80;86.10;;;;;;5049883;28;20033;-58
2021/01/05 12:51:15;;;;;;;25.05;15.23;;;3.80;86.10;;;;;;5047761;28;20025;-57